SUMU/MVD METAR and TAF weather

Enter ICAO airport designator
Station Type Date Time Source
SUMU METAR 2020/02/24 08:00 UTC NOAA

SUMU 240800Z 03010KT CAVOK 17/13 Q1012 NOSIG


Station Type Date Time Source
SUMU Decoded METAR 2020/02/24 08:00 UTC NOAA

Carrasco, Uruguay (SUMU) 34-50S 056-00W 32M
Feb 24, 2020 - 03:00 AM EST / 2020.02.24 0800 UTC
Wind: from the NNE (030 degrees) at 12 MPH (10 KT):0
Visibility: greater than 7 mile(s):0
Temperature: 62 F (17 C)
Dew Point: 55 F (13 C)
Relative Humidity: 77%
Pressure (altimeter): 29.88 in. Hg (1012 hPa)
ob: SUMU 240800Z 03010KT CAVOK 17/13 Q1012 NOSIG
cycle: 8

Station Type Date Time Source
SUMU TAF 2020/02/24 06:15 UTC NOAA

TAF SUMU 240515Z 2406/2506 02010KT CAVOK TX29/2418Z TN16/2410Z
BECMG 2420/2422 35012KT

Example: see airport list